KFRG/FRG METAR and TAF weather

Enter ICAO airport designator
Station Type Date Time Source
KFRG METAR 2023/02/05 23:53 UTC NOAA

KFRG 052353Z 21008KT 10SM CLR 06/01 A3004 RMK AO2 SLP171 T00560011 10072 20056 56008 $


Station Type Date Time Source
KFRG Decoded METAR 2023/02/05 23:53 UTC NOAA

FARMINGDALE REPUBLIC AIRPORT , NY, United States (KFRG) 40-44N 073-25W 21M
Feb 05, 2023 - 06:53 PM EST / 2023.02.05 2353 UTC
Wind: from the SSW (210 degrees) at 9 MPH (8 KT):0
Visibility: 10 mile(s):0
Sky conditions: clear
Temperature: 42.1 F (5.6 C)
Dew Point: 34.0 F (1.1 C)
Relative Humidity: 72%
Pressure (altimeter): 30.04 in. Hg (1017 hPa)
Pressure tendency: 0.02 inches (0.8 hPa) lower than three hours ago
ob: KFRG 052353Z 21008KT 10SM CLR 06/01 A3004 RMK AO2 SLP171 T00560011 10072 20056 56008
cycle: 0

Station Type Date Time Source
KFRG TAF UTC NOAA

Error!

Example: see airport list